Forside
METAR-TAF:

METAR-TAF

Lufthavne :

Sheboygan County Memorial Airport

Sheboygan, Wisconsin, USA

Breddekreds: 43-46-35N, længdekreds: 087-50-59W, højde: 228 m

Aktuelle vejr

Denne rapport blev lavet for 10 minutter siden, kl. 18:53 UTC
Vind 8 kt fra nordvest
Temperatur 1°C
Fugtighed 55%
Tryk 1025 hPa
Sigt: 16.1 km
Brudte skyer i en højde af 3200 ft

METAR: KSBM 061853Z AUTO 31008KT 10SM BKN032 01/M07 A3027 RMK AO2 SLP257 T00061067

Tid: 13:03 (19:03 UTC)


TAF: fraværende

Vejrobservationer og prognoser fra mere end 4000 lufthavne (METAR og TAF).

De gule og røde prikker repræsenterer de meteorologiske stationer.

Flyt musen over at se navnet på stationen.

Så klik over at se vejr observationer og prognoser.

At skifte det kort: Klik på de grønne knapper med et sort kors for at zoome ind; på den grønne knap med en bindestreg for at zoome ud; eller på de grønne pile for tilstødende kort.


METAR-TAF: